sensor_id;sensor_type;location;lat;lon;timestamp;P1;durP1;ratioP1;P2;durP2;ratioP2
12286;SDS011;6206;53.100;11.098;2022-10-31T00:01:29;8.45;;;6.00;;
12286;SDS011;6206;53.100;11.098;2022-10-31T00:03:57;9.27;;;6.05;;
12286;SDS011;6206;53.100;11.098;2022-10-31T00:06:24;7.55;;;5.72;;
12286;SDS011;6206;53.100;11.098;2022-10-31T00:08:52;10.10;;;6.07;;
12286;SDS011;6206;53.100;11.098;2022-10-31T00:11:21;9.53;;;5.90;;
12286;SDS011;6206;53.100;11.098;2022-10-31T00:13:48;9.50;;;5.93;;
12286;SDS011;6206;53.100;11.098;2022-10-31T00:16:15;12.70;;;6.68;;
12286;SDS011;6206;53.100;11.098;2022-10-31T00:18:43;12.13;;;6.53;;
12286;SDS011;6206;53.100;11.098;2022-10-31T00:21:10;7.07;;;5.57;;
12286;SDS011;6206;53.100;11.098;2022-10-31T00:23:36;8.63;;;5.57;;
12286;SDS011;6206;53.100;11.098;2022-10-31T00:26:03;9.63;;;6.03;;
12286;SDS011;6206;53.100;11.098;2022-10-31T00:28:33;8.38;;;5.63;;
12286;SDS011;6206;53.100;11.098;2022-10-31T00:31:00;10.27;;;6.00;;
12286;SDS011;6206;53.100;11.098;2022-10-31T00:33:27;10.60;;;5.88;;
12286;SDS011;6206;53.100;11.098;2022-10-31T00:35:54;9.63;;;6.27;;
12286;SDS011;6206;53.100;11.098;2022-10-31T00:38:22;10.10;;;6.22;;
12286;SDS011;6206;53.100;11.098;2022-10-31T00:40:49;10.27;;;6.28;;
12286;SDS011;6206;53.100;11.098;2022-10-31T00:43:16;13.10;;;6.50;;
12286;SDS011;6206;53.100;11.098;2022-10-31T00:45:44;10.98;;;6.10;;
12286;SDS011;6206;53.100;11.098;2022-10-31T00:48:10;10.32;;;5.97;;
12286;SDS011;6206;53.100;11.098;2022-10-31T00:50:38;9.15;;;6.00;;
12286;SDS011;6206;53.100;11.098;2022-10-31T00:53:05;8.27;;;5.95;;
12286;SDS011;6206;53.100;11.098;2022-10-31T00:55:32;9.90;;;5.95;;
12286;SDS011;6206;53.100;11.098;2022-10-31T00:57:59;7.30;;;5.18;;
12286;SDS011;6206;53.100;11.098;2022-10-31T01:00:26;8.70;;;5.10;;
12286;SDS011;6206;53.100;11.098;2022-10-31T01:02:54;8.05;;;5.32;;
12286;SDS011;6206;53.100;11.098;2022-10-31T01:05:21;9.13;;;5.55;;
12286;SDS011;6206;53.100;11.098;2022-10-31T01:07:48;12.07;;;6.40;;
12286;SDS011;6206;53.100;11.098;2022-10-31T01:10:14;10.35;;;6.55;;
12286;SDS011;6206;53.100;11.098;2022-10-31T01:12:43;13.13;;;7.18;;
12286;SDS011;6206;53.100;11.098;2022-10-31T01:15:11;11.77;;;6.77;;
12286;SDS011;6206;53.100;11.098;2022-10-31T01:17:39;11.60;;;6.18;;
12286;SDS011;6206;53.100;11.098;2022-10-31T01:20:08;7.13;;;4.72;;
12286;SDS011;6206;53.100;11.098;2022-10-31T01:22:36;8.50;;;5.33;;
12286;SDS011;6206;53.100;11.098;2022-10-31T01:25:03;9.10;;;5.90;;
12286;SDS011;6206;53.100;11.098;2022-10-31T01:27:31;9.30;;;5.80;;
12286;SDS011;6206;53.100;11.098;2022-10-31T01:29:57;10.20;;;5.60;;
12286;SDS011;6206;53.100;11.098;2022-10-31T01:32:24;9.87;;;4.70;;
12286;SDS011;6206;53.100;11.098;2022-10-31T01:34:53;7.93;;;4.28;;
12286;SDS011;6206;53.100;11.098;2022-10-31T01:37:22;6.95;;;4.63;;
12286;SDS011;6206;53.100;11.098;2022-10-31T01:39:48;6.87;;;4.63;;
12286;SDS011;6206;53.100;11.098;2022-10-31T01:42:17;8.93;;;4.57;;
12286;SDS011;6206;53.100;11.098;2022-10-31T01:44:50;9.70;;;4.73;;
12286;SDS011;6206;53.100;11.098;2022-10-31T01:47:33;10.10;;;5.00;;
12286;SDS011;6206;53.100;11.098;2022-10-31T01:50:10;8.70;;;4.27;;
12286;SDS011;6206;53.100;11.098;2022-10-31T01:52:43;6.50;;;4.07;;
12286;SDS011;6206;53.100;11.098;2022-10-31T01:55:13;9.35;;;4.88;;
12286;SDS011;6206;53.100;11.098;2022-10-31T01:57:44;11.43;;;5.10;;
12286;SDS011;6206;53.100;11.098;2022-10-31T02:00:13;8.68;;;5.10;;
12286;SDS011;6206;53.100;11.098;2022-10-31T02:02:41;10.65;;;5.38;;
12286;SDS011;6206;53.100;11.098;2022-10-31T02:05:09;9.95;;;5.38;;
12286;SDS011;6206;53.100;11.098;2022-10-31T02:07:41;8.02;;;4.72;;
12286;SDS011;6206;53.100;11.098;2022-10-31T02:10:14;8.00;;;4.73;;
12286;SDS011;6206;53.100;11.098;2022-10-31T02:12:42;8.93;;;4.97;;
12286;SDS011;6206;53.100;11.098;2022-10-31T02:15:10;9.57;;;5.75;;
12286;SDS011;6206;53.100;11.098;2022-10-31T02:17:37;10.70;;;5.25;;
12286;SDS011;6206;53.100;11.098;2022-10-31T02:20:07;9.23;;;4.78;;
12286;SDS011;6206;53.100;11.098;2022-10-31T02:22:43;6.97;;;4.70;;
12286;SDS011;6206;53.100;11.098;2022-10-31T02:25:36;9.23;;;5.30;;
12286;SDS011;6206;53.100;11.098;2022-10-31T02:28:25;9.48;;;4.93;;
12286;SDS011;6206;53.100;11.098;2022-10-31T02:31:12;8.37;;;4.73;;
12286;SDS011;6206;53.100;11.098;2022-10-31T02:33:48;9.52;;;4.00;;
12286;SDS011;6206;53.100;11.098;2022-10-31T02:36:21;9.45;;;4.63;;
12286;SDS011;6206;53.100;11.098;2022-10-31T02:38:54;7.50;;;4.30;;
12286;SDS011;6206;53.100;11.098;2022-10-31T02:41:30;6.90;;;4.30;;
12286;SDS011;6206;53.100;11.098;2022-10-31T02:44:03;7.38;;;4.10;;
12286;SDS011;6206;53.100;11.098;2022-10-31T02:46:38;8.30;;;3.90;;
12286;SDS011;6206;53.100;11.098;2022-10-31T02:49:11;6.50;;;4.30;;
12286;SDS011;6206;53.100;11.098;2022-10-31T02:51:44;7.28;;;4.53;;
12286;SDS011;6206;53.100;11.098;2022-10-31T02:54:18;8.75;;;4.97;;
12286;SDS011;6206;53.100;11.098;2022-10-31T02:56:50;9.23;;;5.20;;
12286;SDS011;6206;53.100;11.098;2022-10-31T02:59:21;22.42;;;10.60;;
12286;SDS011;6206;53.100;11.098;2022-10-31T03:01:56;26.60;;;12.82;;
12286;SDS011;6206;53.100;11.098;2022-10-31T03:04:45;19.20;;;10.10;;
12286;SDS011;6206;53.100;11.098;2022-10-31T03:07:35;14.45;;;7.47;;
12286;SDS011;6206;53.100;11.098;2022-10-31T03:10:10;18.53;;;9.33;;
12286;SDS011;6206;53.100;11.098;2022-10-31T03:12:46;11.88;;;6.88;;
12286;SDS011;6206;53.100;11.098;2022-10-31T03:15:19;13.23;;;7.10;;
12286;SDS011;6206;53.100;11.098;2022-10-31T03:17:52;23.33;;;10.90;;
12286;SDS011;6206;53.100;11.098;2022-10-31T03:20:26;15.70;;;8.90;;
12286;SDS011;6206;53.100;11.098;2022-10-31T03:22:57;14.63;;;9.20;;
12286;SDS011;6206;53.100;11.098;2022-10-31T03:25:27;18.95;;;9.25;;
12286;SDS011;6206;53.100;11.098;2022-10-31T03:27:55;20.42;;;9.48;;
12286;SDS011;6206;53.100;11.098;2022-10-31T03:30:24;17.65;;;9.45;;
12286;SDS011;6206;53.100;11.098;2022-10-31T03:32:53;17.83;;;10.60;;
12286;SDS011;6206;53.100;11.098;2022-10-31T03:35:22;17.33;;;8.73;;
12286;SDS011;6206;53.100;11.098;2022-10-31T03:37:51;17.75;;;9.05;;
12286;SDS011;6206;53.100;11.098;2022-10-31T03:40:20;13.55;;;7.13;;
12286;SDS011;6206;53.100;11.098;2022-10-31T03:42:51;14.70;;;8.00;;
12286;SDS011;6206;53.100;11.098;2022-10-31T03:45:23;15.17;;;8.87;;
12286;SDS011;6206;53.100;11.098;2022-10-31T03:47:52;18.35;;;9.40;;
12286;SDS011;6206;53.100;11.098;2022-10-31T03:50:20;16.33;;;9.50;;
12286;SDS011;6206;53.100;11.098;2022-10-31T03:52:50;17.85;;;9.75;;
12286;SDS011;6206;53.100;11.098;2022-10-31T03:55:24;20.42;;;10.70;;
12286;SDS011;6206;53.100;11.098;2022-10-31T03:57:55;19.00;;;10.57;;
12286;SDS011;6206;53.100;11.098;2022-10-31T04:00:25;20.80;;;11.60;;
12286;SDS011;6206;53.100;11.098;2022-10-31T04:02:55;18.77;;;10.97;;
12286;SDS011;6206;53.100;11.098;2022-10-31T04:05:26;22.25;;;11.20;;
12286;SDS011;6206;53.100;11.098;2022-10-31T04:07:54;20.80;;;11.05;;
12286;SDS011;6206;53.100;11.098;2022-10-31T04:10:23;29.83;;;14.82;;
12286;SDS011;6206;53.100;11.098;2022-10-31T04:12:53;33.38;;;15.15;;
12286;SDS011;6206;53.100;11.098;2022-10-31T04:15:24;49.05;;;20.30;;
12286;SDS011;6206;53.100;11.098;2022-10-31T04:17:55;47.17;;;19.95;;
12286;SDS011;6206;53.100;11.098;2022-10-31T04:20:30;35.30;;;16.85;;
12286;SDS011;6206;53.100;11.098;2022-10-31T04:22:58;23.95;;;12.95;;
12286;SDS011;6206;53.100;11.098;2022-10-31T04:25:26;24.23;;;12.37;;
12286;SDS011;6206;53.100;11.098;2022-10-31T04:27:53;21.92;;;12.10;;
12286;SDS011;6206;53.100;11.098;2022-10-31T04:30:20;21.57;;;11.63;;
12286;SDS011;6206;53.100;11.098;2022-10-31T04:32:47;16.42;;;9.65;;
12286;SDS011;6206;53.100;11.098;2022-10-31T04:35:15;13.70;;;8.15;;
12286;SDS011;6206;53.100;11.098;2022-10-31T04:37:42;15.85;;;8.93;;
12286;SDS011;6206;53.100;11.098;2022-10-31T04:40:10;15.77;;;9.73;;
12286;SDS011;6206;53.100;11.098;2022-10-31T04:42:37;17.70;;;9.40;;
12286;SDS011;6206;53.100;11.098;2022-10-31T04:45:04;19.98;;;9.95;;
12286;SDS011;6206;53.100;11.098;2022-10-31T04:47:32;19.83;;;10.98;;
12286;SDS011;6206;53.100;11.098;2022-10-31T04:49:59;21.02;;;11.07;;
12286;SDS011;6206;53.100;11.098;2022-10-31T04:52:27;22.20;;;9.88;;
12286;SDS011;6206;53.100;11.098;2022-10-31T04:54:54;24.07;;;12.00;;
12286;SDS011;6206;53.100;11.098;2022-10-31T04:57:21;29.13;;;13.52;;
12286;SDS011;6206;53.100;11.098;2022-10-31T04:59:48;33.17;;;13.95;;
12286;SDS011;6206;53.100;11.098;2022-10-31T05:02:14;26.23;;;12.15;;
12286;SDS011;6206;53.100;11.098;2022-10-31T05:04:41;23.60;;;11.07;;
12286;SDS011;6206;53.100;11.098;2022-10-31T05:07:08;20.13;;;10.55;;
12286;SDS011;6206;53.100;11.098;2022-10-31T05:09:36;21.10;;;10.57;;
12286;SDS011;6206;53.100;11.098;2022-10-31T05:12:03;16.92;;;9.52;;
12286;SDS011;6206;53.100;11.098;2022-10-31T05:14:30;18.80;;;9.65;;
12286;SDS011;6206;53.100;11.098;2022-10-31T05:16:56;16.40;;;9.57;;
12286;SDS011;6206;53.100;11.098;2022-10-31T05:19:23;17.67;;;10.05;;
12286;SDS011;6206;53.100;11.098;2022-10-31T05:21:50;16.73;;;9.73;;
12286;SDS011;6206;53.100;11.098;2022-10-31T05:24:17;16.73;;;10.05;;
12286;SDS011;6206;53.100;11.098;2022-10-31T05:26:48;17.85;;;10.80;;
12286;SDS011;6206;53.100;11.098;2022-10-31T05:29:15;15.90;;;9.50;;
12286;SDS011;6206;53.100;11.098;2022-10-31T05:31:42;14.48;;;9.13;;
12286;SDS011;6206;53.100;11.098;2022-10-31T05:34:08;13.70;;;8.80;;
12286;SDS011;6206;53.100;11.098;2022-10-31T05:36:35;14.50;;;9.15;;
12286;SDS011;6206;53.100;11.098;2022-10-31T05:39:02;15.80;;;9.60;;
12286;SDS011;6206;53.100;11.098;2022-10-31T05:41:29;17.88;;;9.65;;
12286;SDS011;6206;53.100;11.098;2022-10-31T05:43:57;14.97;;;8.90;;
12286;SDS011;6206;53.100;11.098;2022-10-31T05:46:24;15.90;;;9.30;;
12286;SDS011;6206;53.100;11.098;2022-10-31T05:48:50;20.20;;;9.68;;
12286;SDS011;6206;53.100;11.098;2022-10-31T05:51:17;14.02;;;9.13;;
12286;SDS011;6206;53.100;11.098;2022-10-31T05:53:45;19.00;;;10.80;;
12286;SDS011;6206;53.100;11.098;2022-10-31T05:56:13;26.13;;;12.93;;
12286;SDS011;6206;53.100;11.098;2022-10-31T05:58:39;28.98;;;13.43;;
12286;SDS011;6206;53.100;11.098;2022-10-31T06:01:07;20.58;;;11.43;;
12286;SDS011;6206;53.100;11.098;2022-10-31T06:03:34;21.67;;;11.40;;
12286;SDS011;6206;53.100;11.098;2022-10-31T06:06:01;18.65;;;10.70;;
12286;SDS011;6206;53.100;11.098;2022-10-31T06:08:28;27.45;;;12.45;;
12286;SDS011;6206;53.100;11.098;2022-10-31T06:10:54;23.15;;;11.63;;
12286;SDS011;6206;53.100;11.098;2022-10-31T06:13:21;17.23;;;9.65;;
12286;SDS011;6206;53.100;11.098;2022-10-31T06:15:48;16.35;;;9.32;;
12286;SDS011;6206;53.100;11.098;2022-10-31T06:18:16;14.93;;;9.10;;
12286;SDS011;6206;53.100;11.098;2022-10-31T06:20:43;16.02;;;9.15;;
12286;SDS011;6206;53.100;11.098;2022-10-31T06:23:09;14.68;;;8.77;;
12286;SDS011;6206;53.100;11.098;2022-10-31T06:25:36;13.83;;;8.13;;
12286;SDS011;6206;53.100;11.098;2022-10-31T06:28:03;11.43;;;7.50;;
12286;SDS011;6206;53.100;11.098;2022-10-31T06:30:30;12.20;;;8.07;;
12286;SDS011;6206;53.100;11.098;2022-10-31T06:33:01;11.82;;;7.90;;
12286;SDS011;6206;53.100;11.098;2022-10-31T06:35:30;13.23;;;7.82;;
12286;SDS011;6206;53.100;11.098;2022-10-31T06:37:57;15.20;;;8.13;;
12286;SDS011;6206;53.100;11.098;2022-10-31T06:40:24;18.10;;;10.50;;
12286;SDS011;6206;53.100;11.098;2022-10-31T06:42:57;19.73;;;10.70;;
12286;SDS011;6206;53.100;11.098;2022-10-31T06:45:24;23.92;;;12.10;;
12286;SDS011;6206;53.100;11.098;2022-10-31T06:47:52;25.48;;;12.77;;
12286;SDS011;6206;53.100;11.098;2022-10-31T06:50:18;26.23;;;13.25;;
12286;SDS011;6206;53.100;11.098;2022-10-31T06:52:50;20.67;;;10.88;;
12286;SDS011;6206;53.100;11.098;2022-10-31T06:55:18;17.92;;;9.98;;
12286;SDS011;6206;53.100;11.098;2022-10-31T06:57:50;23.25;;;11.82;;
12286;SDS011;6206;53.100;11.098;2022-10-31T07:00:17;18.13;;;10.13;;
12286;SDS011;6206;53.100;11.098;2022-10-31T07:02:52;26.92;;;12.65;;
12286;SDS011;6206;53.100;11.098;2022-10-31T07:05:19;23.60;;;11.82;;
12286;SDS011;6206;53.100;11.098;2022-10-31T07:07:46;23.00;;;12.35;;
12286;SDS011;6206;53.100;11.098;2022-10-31T07:10:14;24.30;;;13.30;;
12286;SDS011;6206;53.100;11.098;2022-10-31T07:12:41;29.67;;;14.63;;
12286;SDS011;6206;53.100;11.098;2022-10-31T07:15:08;33.50;;;15.27;;
12286;SDS011;6206;53.100;11.098;2022-10-31T07:17:35;30.33;;;15.98;;
12286;SDS011;6206;53.100;11.098;2022-10-31T07:20:02;28.20;;;15.20;;
12286;SDS011;6206;53.100;11.098;2022-10-31T07:22:33;33.43;;;17.00;;
12286;SDS011;6206;53.100;11.098;2022-10-31T07:25:00;31.48;;;16.25;;
12286;SDS011;6206;53.100;11.098;2022-10-31T07:27:28;30.95;;;16.08;;
12286;SDS011;6206;53.100;11.098;2022-10-31T07:29:55;32.10;;;16.02;;
12286;SDS011;6206;53.100;11.098;2022-10-31T07:32:21;29.40;;;15.90;;
12286;SDS011;6206;53.100;11.098;2022-10-31T07:34:48;32.65;;;16.98;;
12286;SDS011;6206;53.100;11.098;2022-10-31T07:37:15;30.52;;;15.20;;
12286;SDS011;6206;53.100;11.098;2022-10-31T07:39:42;29.92;;;16.02;;
12286;SDS011;6206;53.100;11.098;2022-10-31T07:42:08;31.20;;;16.40;;
12286;SDS011;6206;53.100;11.098;2022-10-31T07:44:37;35.90;;;17.83;;
12286;SDS011;6206;53.100;11.098;2022-10-31T07:47:03;31.20;;;15.82;;
12286;SDS011;6206;53.100;11.098;2022-10-31T07:49:30;28.20;;;15.07;;
12286;SDS011;6206;53.100;11.098;2022-10-31T07:51:57;28.48;;;14.65;;
12286;SDS011;6206;53.100;11.098;2022-10-31T07:54:24;26.77;;;13.95;;
12286;SDS011;6206;53.100;11.098;2022-10-31T07:56:50;26.15;;;14.10;;
12286;SDS011;6206;53.100;11.098;2022-10-31T07:59:17;27.03;;;14.20;;
12286;SDS011;6206;53.100;11.098;2022-10-31T08:01:45;27.52;;;14.05;;
12286;SDS011;6206;53.100;11.098;2022-10-31T08:04:12;23.02;;;12.98;;
12286;SDS011;6206;53.100;11.098;2022-10-31T08:06:39;23.00;;;12.95;;
12286;SDS011;6206;53.100;11.098;2022-10-31T08:09:06;24.53;;;12.70;;
12286;SDS011;6206;53.100;11.098;2022-10-31T08:11:32;22.98;;;12.73;;
12286;SDS011;6206;53.100;11.098;2022-10-31T08:13:59;21.63;;;12.27;;
12286;SDS011;6206;53.100;11.098;2022-10-31T08:16:26;23.92;;;12.70;;
12286;SDS011;6206;53.100;11.098;2022-10-31T08:18:54;22.23;;;10.88;;
12286;SDS011;6206;53.100;11.098;2022-10-31T08:21:21;21.20;;;10.50;;
12286;SDS011;6206;53.100;11.098;2022-10-31T08:23:48;21.10;;;10.50;;
12286;SDS011;6206;53.100;11.098;2022-10-31T08:26:15;23.90;;;10.80;;
12286;SDS011;6206;53.100;11.098;2022-10-31T08:28:42;23.47;;;11.57;;
12286;SDS011;6206;53.100;11.098;2022-10-31T08:31:08;21.15;;;11.38;;
12286;SDS011;6206;53.100;11.098;2022-10-31T08:33:35;23.27;;;12.90;;
12286;SDS011;6206;53.100;11.098;2022-10-31T08:36:03;23.60;;;12.10;;
12286;SDS011;6206;53.100;11.098;2022-10-31T08:38:31;22.40;;;10.95;;
12286;SDS011;6206;53.100;11.098;2022-10-31T08:40:57;24.55;;;13.50;;
12286;SDS011;6206;53.100;11.098;2022-10-31T08:43:24;23.95;;;12.10;;
12286;SDS011;6206;53.100;11.098;2022-10-31T08:45:51;22.70;;;11.17;;
12286;SDS011;6206;53.100;11.098;2022-10-31T08:48:19;21.23;;;11.27;;
12286;SDS011;6206;53.100;11.098;2022-10-31T08:50:46;23.92;;;11.55;;
12286;SDS011;6206;53.100;11.098;2022-10-31T08:53:15;20.55;;;10.68;;
12286;SDS011;6206;53.100;11.098;2022-10-31T08:55:43;21.27;;;10.90;;
12286;SDS011;6206;53.100;11.098;2022-10-31T08:58:11;21.92;;;10.82;;
12286;SDS011;6206;53.100;11.098;2022-10-31T09:00:39;23.17;;;11.48;;
12286;SDS011;6206;53.100;11.098;2022-10-31T09:03:07;18.88;;;10.35;;
12286;SDS011;6206;53.100;11.098;2022-10-31T09:05:37;22.30;;;11.07;;
12286;SDS011;6206;53.100;11.098;2022-10-31T09:08:04;21.60;;;10.55;;
12286;SDS011;6206;53.100;11.098;2022-10-31T09:10:34;18.57;;;10.30;;
12286;SDS011;6206;53.100;11.098;2022-10-31T09:13:03;19.02;;;9.98;;
12286;SDS011;6206;53.100;11.098;2022-10-31T09:15:31;17.25;;;9.48;;
12286;SDS011;6206;53.100;11.098;2022-10-31T09:17:59;18.93;;;9.70;;
12286;SDS011;6206;53.100;11.098;2022-10-31T09:20:26;17.60;;;8.75;;
12286;SDS011;6206;53.100;11.098;2022-10-31T09:22:57;19.17;;;9.55;;
12286;SDS011;6206;53.100;11.098;2022-10-31T09:25:24;16.27;;;9.00;;
12286;SDS011;6206;53.100;11.098;2022-10-31T09:27:56;16.13;;;9.20;;
12286;SDS011;6206;53.100;11.098;2022-10-31T09:30:23;17.08;;;9.77;;
12286;SDS011;6206;53.100;11.098;2022-10-31T09:32:54;18.88;;;10.15;;
12286;SDS011;6206;53.100;11.098;2022-10-31T09:35:21;21.98;;;13.68;;
12286;SDS011;6206;53.100;11.098;2022-10-31T09:37:53;22.55;;;14.82;;
12286;SDS011;6206;53.100;11.098;2022-10-31T09:40:20;16.20;;;9.13;;
12286;SDS011;6206;53.100;11.098;2022-10-31T09:42:52;17.13;;;10.75;;
12286;SDS011;6206;53.100;11.098;2022-10-31T09:45:27;17.38;;;9.05;;
12286;SDS011;6206;53.100;11.098;2022-10-31T09:48:06;16.23;;;8.90;;
12286;SDS011;6206;53.100;11.098;2022-10-31T09:50:44;15.83;;;8.73;;
12286;SDS011;6206;53.100;11.098;2022-10-31T09:53:17;15.00;;;8.45;;
12286;SDS011;6206;53.100;11.098;2022-10-31T09:55:51;15.65;;;8.75;;
12286;SDS011;6206;53.100;11.098;2022-10-31T09:58:22;15.15;;;8.50;;
12286;SDS011;6206;53.100;11.098;2022-10-31T10:00:51;14.63;;;8.43;;
12286;SDS011;6206;53.100;11.098;2022-10-31T10:03:23;14.38;;;8.50;;
12286;SDS011;6206;53.100;11.098;2022-10-31T10:05:56;19.08;;;9.20;;
12286;SDS011;6206;53.100;11.098;2022-10-31T10:08:28;20.05;;;9.77;;
12286;SDS011;6206;53.100;11.098;2022-10-31T10:10:59;17.90;;;9.32;;
12286;SDS011;6206;53.100;11.098;2022-10-31T10:13:39;17.05;;;8.93;;
12286;SDS011;6206;53.100;11.098;2022-10-31T10:16:25;17.05;;;9.05;;
12286;SDS011;6206;53.100;11.098;2022-10-31T10:19:09;16.60;;;9.23;;
12286;SDS011;6206;53.100;11.098;2022-10-31T10:21:56;15.60;;;8.60;;
12286;SDS011;6206;53.100;11.098;2022-10-31T10:24:33;15.55;;;8.48;;
12286;SDS011;6206;53.100;11.098;2022-10-31T10:27:14;15.35;;;8.80;;
12286;SDS011;6206;53.100;11.098;2022-10-31T10:29:50;18.17;;;9.70;;
12286;SDS011;6206;53.100;11.098;2022-10-31T10:32:24;14.48;;;8.77;;
12286;SDS011;6206;53.100;11.098;2022-10-31T10:34:54;18.23;;;10.53;;
12286;SDS011;6206;53.100;11.098;2022-10-31T10:37:27;14.63;;;8.52;;
12286;SDS011;6206;53.100;11.098;2022-10-31T10:39:58;15.55;;;8.25;;
12286;SDS011;6206;53.100;11.098;2022-10-31T10:42:32;16.95;;;10.15;;
12286;SDS011;6206;53.100;11.098;2022-10-31T10:45:20;19.17;;;13.32;;
12286;SDS011;6206;53.100;11.098;2022-10-31T10:48:06;17.67;;;9.02;;
12286;SDS011;6206;53.100;11.098;2022-10-31T10:50:41;15.90;;;8.43;;
12286;SDS011;6206;53.100;11.098;2022-10-31T10:53:18;16.67;;;9.10;;
12286;SDS011;6206;53.100;11.098;2022-10-31T10:56:02;16.45;;;8.57;;
12286;SDS011;6206;53.100;11.098;2022-10-31T10:58:37;16.47;;;9.10;;
12286;SDS011;6206;53.100;11.098;2022-10-31T11:01:10;13.55;;;7.90;;
12286;SDS011;6206;53.100;11.098;2022-10-31T11:03:38;13.15;;;7.43;;
12286;SDS011;6206;53.100;11.098;2022-10-31T11:06:15;14.90;;;8.00;;
12286;SDS011;6206;53.100;11.098;2022-10-31T11:08:47;13.35;;;7.88;;
12286;SDS011;6206;53.100;11.098;2022-10-31T11:11:18;13.88;;;7.82;;
12286;SDS011;6206;53.100;11.098;2022-10-31T11:13:53;12.93;;;7.50;;
12286;SDS011;6206;53.100;11.098;2022-10-31T11:16:29;13.95;;;8.15;;
12286;SDS011;6206;53.100;11.098;2022-10-31T11:19:06;15.25;;;8.70;;
12286;SDS011;6206;53.100;11.098;2022-10-31T11:21:35;12.35;;;7.82;;
12286;SDS011;6206;53.100;11.098;2022-10-31T11:24:02;13.25;;;8.57;;
12286;SDS011;6206;53.100;11.098;2022-10-31T11:26:30;14.68;;;8.38;;
12286;SDS011;6206;53.100;11.098;2022-10-31T11:29:00;16.43;;;8.80;;
12286;SDS011;6206;53.100;11.098;2022-10-31T11:31:30;17.25;;;9.30;;
12286;SDS011;6206;53.100;11.098;2022-10-31T11:33:58;16.03;;;8.67;;
12286;SDS011;6206;53.100;11.098;2022-10-31T11:36:26;18.67;;;8.93;;
12286;SDS011;6206;53.100;11.098;2022-10-31T11:38:56;15.15;;;8.68;;
12286;SDS011;6206;53.100;11.098;2022-10-31T11:41:25;16.00;;;9.10;;
12286;SDS011;6206;53.100;11.098;2022-10-31T11:43:54;16.67;;;9.18;;
12286;SDS011;6206;53.100;11.098;2022-10-31T11:46:24;15.43;;;7.78;;
12286;SDS011;6206;53.100;11.098;2022-10-31T11:48:56;14.40;;;8.02;;
12286;SDS011;6206;53.100;11.098;2022-10-31T11:51:23;14.73;;;8.55;;
12286;SDS011;6206;53.100;11.098;2022-10-31T11:53:55;13.73;;;8.03;;
12286;SDS011;6206;53.100;11.098;2022-10-31T11:56:24;15.00;;;8.30;;
12286;SDS011;6206;53.100;11.098;2022-10-31T11:58:55;15.10;;;8.07;;
12286;SDS011;6206;53.100;11.098;2022-10-31T12:01:24;13.57;;;8.27;;
12286;SDS011;6206;53.100;11.098;2022-10-31T12:03:54;14.68;;;8.30;;
12286;SDS011;6206;53.100;11.098;2022-10-31T12:06:28;15.43;;;8.50;;
12286;SDS011;6206;53.100;11.098;2022-10-31T12:08:59;15.52;;;9.20;;
12286;SDS011;6206;53.100;11.098;2022-10-31T12:11:37;14.18;;;8.43;;
12286;SDS011;6206;53.100;11.098;2022-10-31T12:14:16;16.42;;;8.88;;
12286;SDS011;6206;53.100;11.098;2022-10-31T12:16:55;16.05;;;8.80;;
12286;SDS011;6206;53.100;11.098;2022-10-31T12:19:32;14.38;;;8.10;;
12286;SDS011;6206;53.100;11.098;2022-10-31T12:22:06;15.05;;;7.90;;
12286;SDS011;6206;53.100;11.098;2022-10-31T12:24:48;14.55;;;8.20;;
12286;SDS011;6206;53.100;11.098;2022-10-31T12:27:31;15.15;;;8.10;;
12286;SDS011;6206;53.100;11.098;2022-10-31T12:30:19;14.65;;;8.38;;
12286;SDS011;6206;53.100;11.098;2022-10-31T12:32:55;12.68;;;7.75;;
12286;SDS011;6206;53.100;11.098;2022-10-31T12:35:45;12.50;;;7.57;;
12286;SDS011;6206;53.100;11.098;2022-10-31T12:38:26;13.30;;;8.18;;
12286;SDS011;6206;53.100;11.098;2022-10-31T12:41:02;16.38;;;8.15;;
12286;SDS011;6206;53.100;11.098;2022-10-31T12:43:40;14.30;;;8.10;;
12286;SDS011;6206;53.100;11.098;2022-10-31T12:46:14;14.15;;;8.20;;
12286;SDS011;6206;53.100;11.098;2022-10-31T12:48:52;13.68;;;8.00;;
12286;SDS011;6206;53.100;11.098;2022-10-31T12:51:44;20.77;;;11.30;;
12286;SDS011;6206;53.100;11.098;2022-10-31T12:54:22;20.30;;;11.88;;
12286;SDS011;6206;53.100;11.098;2022-10-31T12:57:04;15.65;;;8.57;;
12286;SDS011;6206;53.100;11.098;2022-10-31T12:59:40;50.47;;;30.73;;
12286;SDS011;6206;53.100;11.098;2022-10-31T13:02:13;18.53;;;9.93;;
12286;SDS011;6206;53.100;11.098;2022-10-31T13:04:46;16.48;;;9.10;;
12286;SDS011;6206;53.100;11.098;2022-10-31T13:07:17;17.17;;;9.13;;
12286;SDS011;6206;53.100;11.098;2022-10-31T13:09:48;14.35;;;8.23;;
12286;SDS011;6206;53.100;11.098;2022-10-31T13:12:21;14.85;;;9.63;;
12286;SDS011;6206;53.100;11.098;2022-10-31T13:14:49;14.60;;;8.38;;
12286;SDS011;6206;53.100;11.098;2022-10-31T13:17:21;13.93;;;7.82;;
12286;SDS011;6206;53.100;11.098;2022-10-31T13:19:52;15.02;;;9.18;;
12286;SDS011;6206;53.100;11.098;2022-10-31T13:22:27;14.80;;;8.80;;
12286;SDS011;6206;53.100;11.098;2022-10-31T13:25:02;17.33;;;10.00;;
12286;SDS011;6206;53.100;11.098;2022-10-31T13:27:40;14.70;;;9.13;;
12286;SDS011;6206;53.100;11.098;2022-10-31T13:30:14;15.65;;;8.80;;
12286;SDS011;6206;53.100;11.098;2022-10-31T13:32:43;15.63;;;8.93;;
12286;SDS011;6206;53.100;11.098;2022-10-31T13:35:19;17.58;;;9.25;;
12286;SDS011;6206;53.100;11.098;2022-10-31T13:37:54;16.00;;;8.88;;
12286;SDS011;6206;53.100;11.098;2022-10-31T13:40:32;17.95;;;9.15;;
12286;SDS011;6206;53.100;11.098;2022-10-31T13:43:06;16.92;;;9.93;;
12286;SDS011;6206;53.100;11.098;2022-10-31T13:45:47;21.45;;;11.20;;
12286;SDS011;6206;53.100;11.098;2022-10-31T13:48:19;19.58;;;9.68;;
12286;SDS011;6206;53.100;11.098;2022-10-31T13:51:01;16.67;;;9.13;;
12286;SDS011;6206;53.100;11.098;2022-10-31T13:53:38;15.90;;;9.10;;
12286;SDS011;6206;53.100;11.098;2022-10-31T13:56:20;20.05;;;10.02;;
12286;SDS011;6206;53.100;11.098;2022-10-31T13:58:57;17.60;;;9.45;;
12286;SDS011;6206;53.100;11.098;2022-10-31T14:01:26;15.10;;;9.07;;
12286;SDS011;6206;53.100;11.098;2022-10-31T14:04:02;16.42;;;9.13;;
12286;SDS011;6206;53.100;11.098;2022-10-31T14:06:35;16.73;;;8.90;;
12286;SDS011;6206;53.100;11.098;2022-10-31T14:09:06;16.73;;;9.32;;
12286;SDS011;6206;53.100;11.098;2022-10-31T14:11:48;16.58;;;9.73;;
12286;SDS011;6206;53.100;11.098;2022-10-31T14:14:16;16.17;;;9.50;;
12286;SDS011;6206;53.100;11.098;2022-10-31T14:16:45;18.63;;;10.10;;
12286;SDS011;6206;53.100;11.098;2022-10-31T14:19:19;18.65;;;9.93;;
12286;SDS011;6206;53.100;11.098;2022-10-31T14:21:47;19.95;;;10.10;;
12286;SDS011;6206;53.100;11.098;2022-10-31T14:24:30;19.23;;;10.23;;
12286;SDS011;6206;53.100;11.098;2022-10-31T14:27:01;18.55;;;9.77;;
12286;SDS011;6206;53.100;11.098;2022-10-31T14:29:30;19.10;;;10.25;;
12286;SDS011;6206;53.100;11.098;2022-10-31T14:31:59;17.73;;;10.00;;
12286;SDS011;6206;53.100;11.098;2022-10-31T14:34:36;17.38;;;9.63;;
12286;SDS011;6206;53.100;11.098;2022-10-31T14:40:07;17.47;;;9.77;;
12286;SDS011;6206;53.100;11.098;2022-10-31T14:42:47;17.13;;;9.93;;
12286;SDS011;6206;53.100;11.098;2022-10-31T14:45:27;19.40;;;10.10;;
12286;SDS011;6206;53.100;11.098;2022-10-31T14:48:03;19.67;;;9.93;;
12286;SDS011;6206;53.100;11.098;2022-10-31T14:50:43;20.63;;;10.65;;
12286;SDS011;6206;53.100;11.098;2022-10-31T14:53:16;23.60;;;11.25;;
12286;SDS011;6206;53.100;11.098;2022-10-31T14:55:49;24.45;;;11.80;;